| time (UTC) | temp C | wind direction | speed KPH | gust KPH | rain 1hr cm | rain 24hr cm | rain mn cm | humidity % | barometer mb |
| 20260507224542 | 17 | 141 | 0.0 | 3.2 | 0.00 | 6.40 | 4.32 | 97 | 1013.9 |
| 20260507223115 | 17 | 320 | 0.0 | 4.8 | 0.00 | 6.40 | 4.32 | 97 | 1013.7 |
| 20260507221546 | 17 | 323 | 0.0 | 3.2 | 0.00 | 6.40 | 4.32 | 97 | 1013.5 |
| 20260507220045 | 17 | 81 | 1.6 | 8.0 | 0.00 | 6.40 | 4.32 | 97 | 1013.7 |
| 20260507214552 | 17 | 0 | 0.0 | 4.8 | 0.00 | 6.40 | 4.32 | 97 | 1013.4 |
| 20260507213045 | 17 | 355 | 0.0 | 6.4 | 0.00 | 6.40 | 4.32 | 97 | 1013.4 |
| 20260507211538 | 17 | 84 | 0.0 | 4.8 | 0.00 | 6.40 | 4.32 | 97 | 1013.6 |
| 20260507210052 | 17 | 137 | 0.0 | 3.2 | 0.00 | 6.40 | 4.32 | 97 | 1013.1 |
| 20260507204548 | 17 | 226 | 0.0 | 6.4 | 0.00 | 6.40 | 4.32 | 97 | 1013.4 |
| 20260507203045 | 17 | 276 | 0.0 | 4.8 | 0.00 | 6.40 | 4.32 | 97 | 1013.4 |
| 20260507201549 | 17 | 62 | 0.0 | 4.8 | 0.00 | 6.40 | 4.32 | 97 | 1013.5 |
| 20260507200054 | 17 | 19 | 0.0 | 3.2 | 0.00 | 6.40 | 4.32 | 97 | 1013.5 |
| 20260507194549 | 16 | 66 | 0.0 | 8.0 | 0.00 | 6.40 | 4.32 | 96 | 1013.5 |
| 20260507193045 | 16 | 0 | 0.0 | 3.2 | 0.00 | 6.40 | 4.32 | 96 | 1013.6 |
| 20260507191538 | 16 | 0 | 0.0 | 1.6 | 0.00 | 6.40 | 4.32 | 96 | 1013.4 |
| 20260507190049 | 15 | 0 | 0.0 | 4.8 | 0.00 | 6.40 | 4.32 | 96 | 1013.5 |
| 20260507184543 | 15 | 304 | 1.6 | 6.4 | 0.00 | 6.40 | 4.32 | 96 | 1013.8 |
| 20260507183042 | 15 | 149 | 0.0 | 1.6 | 0.00 | 6.40 | 4.32 | 96 | 1013.8 |
| 20260507181539 | 16 | 251 | 0.0 | 3.2 | 0.00 | 6.40 | 4.32 | 96 | 1013.6 |
| 20260507180048 | 16 | 0 | 0.0 | 4.8 | 0.00 | 6.40 | 4.32 | 96 | 1013.5 |
| 20260507174554 | 16 | 0 | 0.0 | 6.4 | 0.00 | 6.40 | 4.32 | 96 | 1013.8 |
| 20260507173044 | 16 | 53 | 0.0 | 6.4 | 0.00 | 6.40 | 4.32 | 96 | 1013.8 |
| 20260507171556 | 16 | 225 | 1.6 | 8.0 | 0.00 | 6.40 | 4.32 | 96 | 1013.7 |
| 20260507170045 | 17 | 296 | 0.0 | 8.0 | 0.00 | 6.40 | 4.32 | 96 | 1013.5 |
| 20260507164547 | 17 | 106 | 0.0 | 3.2 | 0.00 | 6.40 | 4.32 | 96 | 1013.2 |
| 20260507163044 | 17 | 296 | 0.0 | 11.3 | 0.00 | 6.40 | 4.32 | 96 | 1013.2 |
| 20260507161552 | 18 | 89 | 1.6 | 9.7 | 0.00 | 6.40 | 4.32 | 96 | 1013.1 |
| 20260507160045 | 17 | 0 | 0.0 | 3.2 | 0.00 | 6.40 | 4.32 | 96 | 1013.0 |
| 20260507154546 | 18 | 303 | 0.0 | 3.2 | 0.00 | 6.40 | 4.32 | 96 | 1013.0 |
| 20260507153042 | 17 | 301 | 1.6 | 4.8 | 0.00 | 6.40 | 4.32 | 96 | 1012.8 |
| 20260507151556 | 17 | 295 | 0.0 | 4.8 | 0.00 | 6.40 | 4.32 | 96 | 1012.6 |
| 20260507150052 | 17 | 210 | 0.0 | 3.2 | 0.00 | 6.40 | 4.32 | 96 | 1012.5 |
| 20260507144552 | 17 | 0 | 1.6 | 6.4 | 0.00 | 6.40 | 4.32 | 96 | 1012.6 |
| 20260507143051 | 17 | 283 | 0.0 | 1.6 | 0.03 | 6.40 | 4.32 | 96 | 1012.7 |
| 20260507141542 | 17 | 250 | 0.0 | 3.2 | 0.03 | 6.40 | 4.32 | 96 | 1012.5 |
| 20260507140040 | 17 | 0 | 0.0 | 3.2 | 0.13 | 6.40 | 4.32 | 96 | 1012.6 |
| 20260507134539 | 17 | 0 | 0.0 | 0.0 | 0.36 | 6.40 | 4.32 | 96 | 1012.5 |
| 20260507133047 | 17 | 0 | 0.0 | 1.6 | 0.33 | 6.38 | 4.29 | 96 | 1012.3 |
| 20260507131544 | 17 | 0 | 0.0 | 1.6 | 0.36 | 6.38 | 4.29 | 96 | 1012.5 |
| 20260507130057 | 16 | 0 | 0.0 | 0.0 | 0.28 | 6.25 | 4.17 | 96 | 1012.2 |
| 20260507124557 | 16 | 303 | 1.6 | 3.2 | 0.13 | 6.05 | 3.96 | 96 | 1011.8 |
| 20260507123057 | 16 | 0 | 0.0 | 1.6 | 0.15 | 6.05 | 3.96 | 96 | 1011.2 |
| 20260507121543 | 16 | 295 | 0.0 | 4.8 | 0.20 | 5.99 | 3.94 | 96 | 1012.0 |
| 20260507120040 | 16 | 315 | 1.6 | 6.4 | 0.48 | 5.94 | 3.89 | 96 | 1012.1 |
| 20260507114537 | 16 | 319 | 0.0 | 4.8 | 0.56 | 5.92 | 3.84 | 96 | 1011.5 |
| 20260507113045 | 16 | 0 | 0.0 | 4.8 | 0.53 | 5.89 | 3.81 | 96 | 1010.8 |
| 20260507111544 | 17 | 272 | 0.0 | 4.8 | 0.46 | 5.82 | 3.73 | 96 | 1010.7 |
| 20260507110043 | 17 | 348 | 0.0 | 3.2 | 0.13 | 5.46 | 3.38 | 96 | 1010.4 |
| 20260507104550 | 17 | 0 | 0.0 | 0.0 | 0.03 | 5.33 | 3.28 | 96 | 1009.7 |
| 20260507103044 | 17 | 0 | 0.0 | 0.0 | 0.03 | 5.33 | 3.28 | 96 | 1010.0 |
| 20260507101541 | 17 | 0 | 0.0 | 0.0 | 0.03 | 5.33 | 3.28 | 96 | 1010.2 |
| 20260507100055 | 17 | 0 | 0.0 | 0.0 | 0.00 | 5.31 | 3.25 | 96 | 1010.1 |
| 20260507094542 | 17 | 0 | 0.0 | 0.0 | 0.00 | 5.31 | 3.25 | 96 | 1010.4 |
| 20260507093042 | 17 | 0 | 0.0 | 0.0 | 0.03 | 5.31 | 3.25 | 96 | 1010.4 |
| 20260507091538 | 17 | 0 | 0.0 | 0.0 | 0.03 | 5.31 | 3.25 | 96 | 1010.4 |
| 20260507090039 | 17 | 0 | 0.0 | 0.0 | 0.03 | 5.31 | 3.25 | 96 | 1010.5 |
| 20260507084544 | 17 | 0 | 0.0 | 0.0 | 0.05 | 5.31 | 3.25 | 96 | 1010.5 |
| 20260507083103 | 17 | 238 | 0.0 | 0.0 | 0.03 | 5.28 | 3.23 | 96 | 1010.8 |
| 20260507081553 | 17 | 0 | 0.0 | 0.0 | 0.03 | 5.28 | 3.23 | 96 | 1011.4 |
| 20260507080040 | 17 | 0 | 0.0 | 0.0 | 0.03 | 5.28 | 3.23 | 96 | 1011.5 |
| 20260507074539 | 17 | 0 | 0.0 | 0.0 | 0.00 | 5.28 | 3.20 | 96 | 1011.4 |
| 20260507073059 | 17 | 0 | 0.0 | 1.6 | 0.00 | 5.28 | 3.20 | 96 | 1011.8 |
| 20260507071545 | 17 | 0 | 0.0 | 0.0 | 0.05 | 5.28 | 3.20 | 96 | 1011.9 |
| 20260507070046 | 17 | 0 | 0.0 | 4.8 | 0.10 | 5.28 | 3.20 | 95 | 1011.9 |
| 20260507064543 | 17 | 41 | 0.0 | 1.6 | 0.30 | 5.28 | 3.20 | 96 | 1012.2 |
| 20260507063047 | 17 | 0 | 0.0 | 1.6 | 0.43 | 5.28 | 3.20 | 96 | 1012.2 |
| 20260507061545 | 17 | 0 | 0.0 | 0.0 | 0.51 | 5.23 | 3.15 | 96 | 1012.2 |
| 20260507060039 | 17 | 0 | 0.0 | 0.0 | 0.48 | 5.16 | 3.07 | 96 | 1012.4 |
| 20260507054544 | 17 | 0 | 0.0 | 1.6 | 0.43 | 4.98 | 2.90 | 95 | 1013.0 |
| 20260507053045 | 17 | 0 | 0.0 | 0.0 | 0.74 | 4.85 | 2.77 | 95 | 1013.2 |
| 20260507051544 | 17 | 0 | 0.0 | 0.0 | 2.21 | 4.72 | 2.64 | 95 | 1013.4 |
| 20260507050050 | 17 | 0 | 0.0 | 1.6 | 2.54 | 4.65 | 2.57 | 95 | 1013.5 |
| 20260507044546 | 17 | 0 | 0.0 | 0.0 | 2.62 | 4.55 | 2.46 | 94 | 1013.9 |
| 20260507043041 | 17 | 0 | 0.0 | 3.2 | 2.18 | 4.01 | 1.93 | 93 | 1014.6 |
| 20260507041547 | 17 | 313 | 0.0 | 3.2 | 0.79 | 2.49 | 0.41 | 93 | 1013.2 |
| 20260507040046 | 17 | 0 | 0.0 | 0.0 | 0.66 | 2.08 | 0.00 | 93 | 1013.6 |
| 20260507034546 | 17 | 0 | 0.0 | 0.0 | 0.89 | 1.93 | 1.93 | 93 | 1013.5 |
| 20260507033039 | 17 | 0 | 0.0 | 0.0 | 0.79 | 1.83 | 1.83 | 93 | 1013.8 |
| 20260507031538 | 17 | 0 | 0.0 | 1.6 | 0.69 | 1.70 | 1.70 | 93 | 1013.7 |
| 20260507030047 | 17 | 0 | 0.0 | 4.8 | 0.41 | 1.40 | 1.40 | 92 | 1014.2 |
| 20260507024551 | 18 | 82 | 1.6 | 8.0 | 0.05 | 1.04 | 1.04 | 92 | 1014.0 |
| 20260507023044 | 20 | 62 | 0.0 | 1.6 | 0.05 | 1.04 | 1.04 | 94 | 1013.9 |
| 20260507021542 | 20 | 0 | 0.0 | 0.0 | 0.03 | 1.02 | 1.02 | 93 | 1013.1 |
| 20260507020052 | 20 | 0 | 0.0 | 0.0 | 0.00 | 0.99 | 0.99 | 93 | 1012.9 |
| 20260507014557 | 20 | 0 | 0.0 | 0.0 | 0.00 | 0.99 | 0.99 | 93 | 1012.7 |
| 20260507013042 | 20 | 0 | 0.0 | 0.0 | 0.00 | 0.99 | 0.99 | 93 | 1013.1 |
| 20260507011537 | 20 | 0 | 0.0 | 0.0 | 0.05 | 0.99 | 0.99 | 93 | 1013.4 |
| 20260507010044 | 21 | 0 | 0.0 | 0.0 | 0.08 | 0.99 | 0.99 | 93 | 1013.1 |
| 20260507004543 | 21 | 0 | 0.0 | 0.0 | 0.08 | 0.99 | 0.99 | 93 | 1013.0 |
| 20260507003039 | 21 | 0 | 0.0 | 1.6 | 0.08 | 0.99 | 0.99 | 93 | 1013.1 |
| 20260507001538 | 21 | 0 | 0.0 | 0.0 | 0.03 | 0.94 | 0.94 | 92 | 1013.1 |
| 20260507000038 | 21 | 0 | 0.0 | 0.0 | 0.25 | 0.91 | 0.91 | 92 | 1013.2 |
| 20260506234539 | 21 | 0 | 0.0 | 0.0 | 0.71 | 0.91 | 0.91 | 92 | 1013.1 |
| 20260506233045 | 21 | 0 | 0.0 | 0.0 | 0.91 | 0.91 | 0.91 | 92 | 1013.0 |
| 20260506231551 | 21 | 0 | 0.0 | 1.6 | 0.91 | 0.91 | 0.91 | 92 | 1013.1 |
| 20260506230053 | 22 | 0 | 0.0 | 1.6 | 0.66 | 0.66 | 0.66 | 89 | 1013.2 |